sensor_id;sensor_type;location;lat;lon;timestamp;P1;durP1;ratioP1;P2;durP2;ratioP2
16025;SDS011;8117;52.488;13.460;2023-07-29T00:01:54;3.03;;;1.83;;
16025;SDS011;8117;52.488;13.460;2023-07-29T00:04:24;3.33;;;1.55;;
16025;SDS011;8117;52.488;13.460;2023-07-29T00:06:51;3.00;;;1.70;;
16025;SDS011;8117;52.488;13.460;2023-07-29T00:09:20;2.63;;;1.40;;
16025;SDS011;8117;52.488;13.460;2023-07-29T00:12:22;2.30;;;1.92;;
16025;SDS011;8117;52.488;13.460;2023-07-29T00:14:54;3.25;;;1.95;;
16025;SDS011;8117;52.488;13.460;2023-07-29T00:17:24;1.77;;;1.58;;
16025;SDS011;8117;52.488;13.460;2023-07-29T00:19:51;2.50;;;1.70;;
16025;SDS011;8117;52.488;13.460;2023-07-29T00:22:18;3.47;;;2.20;;
16025;SDS011;8117;52.488;13.460;2023-07-29T00:24:45;2.17;;;1.48;;
16025;SDS011;8117;52.488;13.460;2023-07-29T00:27:22;2.23;;;1.53;;
16025;SDS011;8117;52.488;13.460;2023-07-29T00:29:49;2.87;;;1.90;;
16025;SDS011;8117;52.488;13.460;2023-07-29T00:32:17;2.67;;;1.83;;
16025;SDS011;8117;52.488;13.460;2023-07-29T00:34:47;3.83;;;1.50;;
16025;SDS011;8117;52.488;13.460;2023-07-29T00:37:17;2.37;;;1.60;;
16025;SDS011;8117;52.488;13.460;2023-07-29T00:39:50;2.10;;;1.75;;
16025;SDS011;8117;52.488;13.460;2023-07-29T00:42:17;3.30;;;2.43;;
16025;SDS011;8117;52.488;13.460;2023-07-29T00:44:51;2.70;;;1.63;;
16025;SDS011;8117;52.488;13.460;2023-07-29T00:47:37;2.97;;;1.70;;
16025;SDS011;8117;52.488;13.460;2023-07-29T00:50:07;2.20;;;1.60;;
16025;SDS011;8117;52.488;13.460;2023-07-29T00:52:35;2.83;;;1.90;;
16025;SDS011;8117;52.488;13.460;2023-07-29T00:55:02;2.93;;;1.70;;
16025;SDS011;8117;52.488;13.460;2023-07-29T00:57:29;2.97;;;2.13;;
16025;SDS011;8117;52.488;13.460;2023-07-29T01:00:02;3.45;;;1.75;;
16025;SDS011;8117;52.488;13.460;2023-07-29T01:02:30;3.58;;;2.22;;
16025;SDS011;8117;52.488;13.460;2023-07-29T01:05:02;3.60;;;2.10;;
16025;SDS011;8117;52.488;13.460;2023-07-29T01:07:39;4.13;;;2.17;;
16025;SDS011;8117;52.488;13.460;2023-07-29T01:10:13;3.55;;;2.40;;
16025;SDS011;8117;52.488;13.460;2023-07-29T01:12:49;6.22;;;1.92;;
16025;SDS011;8117;52.488;13.460;2023-07-29T01:15:19;2.60;;;1.73;;
16025;SDS011;8117;52.488;13.460;2023-07-29T01:17:49;1.98;;;1.77;;
16025;SDS011;8117;52.488;13.460;2023-07-29T01:20:24;2.55;;;1.67;;
16025;SDS011;8117;52.488;13.460;2023-07-29T01:22:51;2.78;;;1.98;;
16025;SDS011;8117;52.488;13.460;2023-07-29T01:25:19;2.28;;;1.52;;
16025;SDS011;8117;52.488;13.460;2023-07-29T01:27:49;3.88;;;2.20;;
16025;SDS011;8117;52.488;13.460;2023-07-29T01:30:17;2.20;;;1.47;;
16025;SDS011;8117;52.488;13.460;2023-07-29T01:32:46;3.10;;;1.80;;
16025;SDS011;8117;52.488;13.460;2023-07-29T01:35:21;2.30;;;1.50;;
16025;SDS011;8117;52.488;13.460;2023-07-29T01:37:51;2.20;;;1.60;;
16025;SDS011;8117;52.488;13.460;2023-07-29T01:40:28;2.70;;;1.77;;
16025;SDS011;8117;52.488;13.460;2023-07-29T01:43:11;2.40;;;1.63;;
16025;SDS011;8117;52.488;13.460;2023-07-29T01:45:45;2.03;;;1.50;;
16025;SDS011;8117;52.488;13.460;2023-07-29T01:48:20;2.75;;;1.52;;
16025;SDS011;8117;52.488;13.460;2023-07-29T01:50:49;2.50;;;1.70;;
16025;SDS011;8117;52.488;13.460;2023-07-29T01:53:16;1.97;;;1.60;;
16025;SDS011;8117;52.488;13.460;2023-07-29T01:55:49;5.03;;;2.30;;
16025;SDS011;8117;52.488;13.460;2023-07-29T01:58:22;2.13;;;1.53;;
16025;SDS011;8117;52.488;13.460;2023-07-29T02:00:49;3.37;;;1.80;;
16025;SDS011;8117;52.488;13.460;2023-07-29T02:03:16;2.97;;;2.17;;
16025;SDS011;8117;52.488;13.460;2023-07-29T02:05:49;2.45;;;1.60;;
16025;SDS011;8117;52.488;13.460;2023-07-29T02:08:16;2.75;;;1.92;;
16025;SDS011;8117;52.488;13.460;2023-07-29T02:10:48;2.53;;;1.75;;
16025;SDS011;8117;52.488;13.460;2023-07-29T02:13:27;3.17;;;2.22;;
16025;SDS011;8117;52.488;13.460;2023-07-29T02:15:54;2.75;;;1.48;;
16025;SDS011;8117;52.488;13.460;2023-07-29T02:18:21;3.20;;;1.73;;
16025;SDS011;8117;52.488;13.460;2023-07-29T02:20:50;2.10;;;1.63;;
16025;SDS011;8117;52.488;13.460;2023-07-29T02:23:19;2.00;;;1.43;;
16025;SDS011;8117;52.488;13.460;2023-07-29T02:25:57;2.40;;;1.80;;
16025;SDS011;8117;52.488;13.460;2023-07-29T02:28:27;2.53;;;1.90;;
16025;SDS011;8117;52.488;13.460;2023-07-29T02:31:13;2.60;;;1.70;;
16025;SDS011;8117;52.488;13.460;2023-07-29T02:33:48;2.77;;;1.93;;
16025;SDS011;8117;52.488;13.460;2023-07-29T02:36:17;2.60;;;1.80;;
16025;SDS011;8117;52.488;13.460;2023-07-29T02:38:45;1.80;;;1.50;;
16025;SDS011;8117;52.488;13.460;2023-07-29T02:41:44;1.67;;;1.57;;
16025;SDS011;8117;52.488;13.460;2023-07-29T02:44:12;2.43;;;1.67;;
16025;SDS011;8117;52.488;13.460;2023-07-29T02:46:39;2.47;;;1.90;;
16025;SDS011;8117;52.488;13.460;2023-07-29T02:49:08;2.90;;;1.67;;
16025;SDS011;8117;52.488;13.460;2023-07-29T02:51:35;2.57;;;1.47;;
16025;SDS011;8117;52.488;13.460;2023-07-29T02:57:08;3.00;;;2.10;;
16025;SDS011;8117;52.488;13.460;2023-07-29T02:59:43;6.33;;;1.97;;
16025;SDS011;8117;52.488;13.460;2023-07-29T03:02:16;2.13;;;1.50;;
16025;SDS011;8117;52.488;13.460;2023-07-29T03:04:49;3.40;;;1.70;;
16025;SDS011;8117;52.488;13.460;2023-07-29T03:07:17;3.20;;;1.57;;
16025;SDS011;8117;52.488;13.460;2023-07-29T03:09:45;4.93;;;2.00;;
16025;SDS011;8117;52.488;13.460;2023-07-29T03:12:17;2.43;;;1.67;;
16025;SDS011;8117;52.488;13.460;2023-07-29T03:14:49;2.47;;;1.67;;
16025;SDS011;8117;52.488;13.460;2023-07-29T03:17:16;2.40;;;1.70;;
16025;SDS011;8117;52.488;13.460;2023-07-29T03:19:47;2.23;;;1.73;;
16025;SDS011;8117;52.488;13.460;2023-07-29T03:22:23;1.87;;;1.40;;
16025;SDS011;8117;52.488;13.460;2023-07-29T03:25:10;2.50;;;1.70;;
16025;SDS011;8117;52.488;13.460;2023-07-29T03:27:57;2.60;;;1.70;;
16025;SDS011;8117;52.488;13.460;2023-07-29T03:30:28;2.67;;;1.80;;
16025;SDS011;8117;52.488;13.460;2023-07-29T03:33:05;2.23;;;1.43;;
16025;SDS011;8117;52.488;13.460;2023-07-29T03:35:34;2.30;;;2.00;;
16025;SDS011;8117;52.488;13.460;2023-07-29T03:38:04;1.93;;;1.50;;
16025;SDS011;8117;52.488;13.460;2023-07-29T03:40:32;5.70;;;1.80;;
16025;SDS011;8117;52.488;13.460;2023-07-29T03:47:01;2.77;;;1.70;;
16025;SDS011;8117;52.488;13.460;2023-07-29T03:49:37;3.90;;;1.67;;
16025;SDS011;8117;52.488;13.460;2023-07-29T03:52:25;2.43;;;1.80;;
16025;SDS011;8117;52.488;13.460;2023-07-29T03:54:56;2.87;;;1.57;;
16025;SDS011;8117;52.488;13.460;2023-07-29T03:57:39;2.20;;;1.73;;
16025;SDS011;8117;52.488;13.460;2023-07-29T04:15:42;2.27;;;1.77;;
16025;SDS011;8117;52.488;13.460;2023-07-29T04:18:12;3.27;;;1.77;;
16025;SDS011;8117;52.488;13.460;2023-07-29T04:20:46;2.83;;;1.90;;
16025;SDS011;8117;52.488;13.460;2023-07-29T04:23:17;2.77;;;1.60;;
16025;SDS011;8117;52.488;13.460;2023-07-29T04:25:44;4.80;;;2.27;;
16025;SDS011;8117;52.488;13.460;2023-07-29T04:28:17;2.97;;;1.67;;
16025;SDS011;8117;52.488;13.460;2023-07-29T04:31:09;2.13;;;1.70;;
16025;SDS011;8117;52.488;13.460;2023-07-29T04:34:04;1.87;;;1.47;;
16025;SDS011;8117;52.488;13.460;2023-07-29T04:36:37;4.97;;;2.00;;
16025;SDS011;8117;52.488;13.460;2023-07-29T04:39:09;2.33;;;1.63;;
16025;SDS011;8117;52.488;13.460;2023-07-29T04:41:52;2.60;;;1.60;;
16025;SDS011;8117;52.488;13.460;2023-07-29T04:50:27;3.53;;;2.10;;
16025;SDS011;8117;52.488;13.460;2023-07-29T04:57:09;2.13;;;1.90;;
16025;SDS011;8117;52.488;13.460;2023-07-29T04:59:37;3.00;;;2.10;;
16025;SDS011;8117;52.488;13.460;2023-07-29T05:02:15;3.93;;;2.30;;
16025;SDS011;8117;52.488;13.460;2023-07-29T05:04:50;3.87;;;2.57;;
16025;SDS011;8117;52.488;13.460;2023-07-29T05:07:16;3.80;;;2.23;;
16025;SDS011;8117;52.488;13.460;2023-07-29T05:09:43;3.15;;;2.40;;
16025;SDS011;8117;52.488;13.460;2023-07-29T05:12:10;3.20;;;1.92;;
16025;SDS011;8117;52.488;13.460;2023-07-29T05:17:29;3.03;;;1.70;;
16025;SDS011;8117;52.488;13.460;2023-07-29T05:20:02;2.30;;;1.57;;
16025;SDS011;8117;52.488;13.460;2023-07-29T05:22:39;2.63;;;1.90;;
16025;SDS011;8117;52.488;13.460;2023-07-29T05:25:08;2.37;;;1.73;;
16025;SDS011;8117;52.488;13.460;2023-07-29T05:27:41;1.83;;;1.33;;
16025;SDS011;8117;52.488;13.460;2023-07-29T05:33:28;3.33;;;2.23;;
16025;SDS011;8117;52.488;13.460;2023-07-29T05:36:14;2.30;;;2.10;;
16025;SDS011;8117;52.488;13.460;2023-07-29T05:38:56;3.33;;;2.00;;
16025;SDS011;8117;52.488;13.460;2023-07-29T05:41:32;5.67;;;2.30;;
16025;SDS011;8117;52.488;13.460;2023-07-29T05:44:03;3.33;;;2.07;;
16025;SDS011;8117;52.488;13.460;2023-07-29T05:47:01;2.50;;;1.80;;
16025;SDS011;8117;52.488;13.460;2023-07-29T05:49:33;2.70;;;1.67;;
16025;SDS011;8117;52.488;13.460;2023-07-29T05:52:05;1.98;;;1.80;;
16025;SDS011;8117;52.488;13.460;2023-07-29T05:54:32;2.95;;;1.45;;
16025;SDS011;8117;52.488;13.460;2023-07-29T05:57:04;2.87;;;2.00;;
16025;SDS011;8117;52.488;13.460;2023-07-29T05:59:38;2.28;;;1.98;;
16025;SDS011;8117;52.488;13.460;2023-07-29T06:02:19;2.20;;;1.60;;
16025;SDS011;8117;52.488;13.460;2023-07-29T06:04:47;3.03;;;1.90;;
16025;SDS011;8117;52.488;13.460;2023-07-29T06:10:48;1.42;;;1.33;;
16025;SDS011;8117;52.488;13.460;2023-07-29T06:13:20;2.38;;;1.88;;
16025;SDS011;8117;52.488;13.460;2023-07-29T06:15:50;3.47;;;1.90;;
16025;SDS011;8117;52.488;13.460;2023-07-29T06:18:38;29.55;;;1.60;;
16025;SDS011;8117;52.488;13.460;2023-07-29T06:21:21;2.85;;;2.03;;
16025;SDS011;8117;52.488;13.460;2023-07-29T06:23:51;1.85;;;1.45;;
16025;SDS011;8117;52.488;13.460;2023-07-29T06:26:26;1.52;;;1.40;;
16025;SDS011;8117;52.488;13.460;2023-07-29T06:28:53;2.17;;;1.63;;
16025;SDS011;8117;52.488;13.460;2023-07-29T06:31:22;2.63;;;1.92;;
16025;SDS011;8117;52.488;13.460;2023-07-29T06:33:49;2.33;;;1.70;;
16025;SDS011;8117;52.488;13.460;2023-07-29T06:36:18;1.70;;;1.52;;
16025;SDS011;8117;52.488;13.460;2023-07-29T06:38:53;2.87;;;1.90;;
16025;SDS011;8117;52.488;13.460;2023-07-29T06:41:24;1.63;;;1.45;;
16025;SDS011;8117;52.488;13.460;2023-07-29T06:44:01;1.27;;;1.13;;
16025;SDS011;8117;52.488;13.460;2023-07-29T06:46:29;2.17;;;1.50;;
16025;SDS011;8117;52.488;13.460;2023-07-29T06:48:56;2.50;;;2.10;;
16025;SDS011;8117;52.488;13.460;2023-07-29T07:05:15;1.42;;;1.30;;
16025;SDS011;8117;52.488;13.460;2023-07-29T07:07:55;1.67;;;1.33;;
16025;SDS011;8117;52.488;13.460;2023-07-29T07:11:32;1.95;;;1.42;;
16025;SDS011;8117;52.488;13.460;2023-07-29T07:17:06;1.20;;;1.08;;
16025;SDS011;8117;52.488;13.460;2023-07-29T07:22:58;1.77;;;1.48;;
16025;SDS011;8117;52.488;13.460;2023-07-29T07:25:39;2.17;;;1.63;;
16025;SDS011;8117;52.488;13.460;2023-07-29T07:28:07;2.25;;;1.58;;
16025;SDS011;8117;52.488;13.460;2023-07-29T07:30:41;2.45;;;1.63;;
16025;SDS011;8117;52.488;13.460;2023-07-29T07:33:46;2.55;;;1.50;;
16025;SDS011;8117;52.488;13.460;2023-07-29T07:39:28;1.10;;;0.95;;
16025;SDS011;8117;52.488;13.460;2023-07-29T07:42:09;2.55;;;1.75;;
16025;SDS011;8117;52.488;13.460;2023-07-29T07:44:53;2.05;;;1.67;;
16025;SDS011;8117;52.488;13.460;2023-07-29T07:47:33;2.30;;;1.65;;
16025;SDS011;8117;52.488;13.460;2023-07-29T07:50:05;1.90;;;1.42;;
16025;SDS011;8117;52.488;13.460;2023-07-29T07:52:34;1.98;;;1.67;;
16025;SDS011;8117;52.488;13.460;2023-07-29T07:55:07;2.67;;;1.77;;
16025;SDS011;8117;52.488;13.460;2023-07-29T07:57:59;2.10;;;1.73;;
16025;SDS011;8117;52.488;13.460;2023-07-29T08:03:50;1.52;;;1.42;;
16025;SDS011;8117;52.488;13.460;2023-07-29T08:14:01;2.58;;;1.60;;
16025;SDS011;8117;52.488;13.460;2023-07-29T10:11:43;2.83;;;1.45;;
16025;SDS011;8117;52.488;13.460;2023-07-29T10:14:23;1.25;;;1.10;;
16025;SDS011;8117;52.488;13.460;2023-07-29T10:18:03;2.80;;;1.83;;
16025;SDS011;8117;52.488;13.460;2023-07-29T10:30:51;1.58;;;1.20;;
16025;SDS011;8117;52.488;13.460;2023-07-29T10:34:39;0.73;;;0.73;;
16025;SDS011;8117;52.488;13.460;2023-07-29T10:37:35;0.70;;;0.70;;
16025;SDS011;8117;52.488;13.460;2023-07-29T10:40:49;1.02;;;0.93;;
16025;SDS011;8117;52.488;13.460;2023-07-29T13:42:37;1.30;;;1.10;;
16025;SDS011;8117;52.488;13.460;2023-07-29T14:31:37;0.70;;;0.60;;
16025;SDS011;8117;52.488;13.460;2023-07-29T14:34:26;0.40;;;0.32;;
16025;SDS011;8117;52.488;13.460;2023-07-29T14:37:47;0.82;;;0.77;;
16025;SDS011;8117;52.488;13.460;2023-07-29T14:42:07;0.65;;;0.60;;
16025;SDS011;8117;52.488;13.460;2023-07-29T14:44:46;0.85;;;0.65;;
16025;SDS011;8117;52.488;13.460;2023-07-29T14:53:54;1.25;;;0.90;;
16025;SDS011;8117;52.488;13.460;2023-07-29T15:02:40;0.52;;;0.50;;
16025;SDS011;8117;52.488;13.460;2023-07-29T15:08:33;0.73;;;0.57;;
16025;SDS011;8117;52.488;13.460;2023-07-29T15:11:01;0.80;;;0.52;;
16025;SDS011;8117;52.488;13.460;2023-07-29T15:13:31;0.68;;;0.68;;
16025;SDS011;8117;52.488;13.460;2023-07-29T15:22:03;1.33;;;0.68;;
16025;SDS011;8117;52.488;13.460;2023-07-29T15:27:45;0.70;;;0.70;;
16025;SDS011;8117;52.488;13.460;2023-07-29T15:30:30;1.02;;;0.73;;
16025;SDS011;8117;52.488;13.460;2023-07-29T15:33:22;1.50;;;0.70;;
16025;SDS011;8117;52.488;13.460;2023-07-29T15:36:01;1.13;;;0.70;;
16025;SDS011;8117;52.488;13.460;2023-07-29T15:38:57;1.00;;;0.60;;
16025;SDS011;8117;52.488;13.460;2023-07-29T15:41:33;0.88;;;0.68;;
16025;SDS011;8117;52.488;13.460;2023-07-29T15:46:52;0.50;;;0.50;;
16025;SDS011;8117;52.488;13.460;2023-07-29T15:49:36;0.98;;;0.68;;
16025;SDS011;8117;52.488;13.460;2023-07-29T15:52:35;0.50;;;0.40;;
16025;SDS011;8117;52.488;13.460;2023-07-29T15:55:15;0.43;;;0.40;;
16025;SDS011;8117;52.488;13.460;2023-07-29T15:57:45;1.55;;;0.95;;
16025;SDS011;8117;52.488;13.460;2023-07-29T16:00:17;0.82;;;0.50;;
16025;SDS011;8117;52.488;13.460;2023-07-29T16:04:13;0.30;;;0.30;;
16025;SDS011;8117;52.488;13.460;2023-07-29T16:06:15;0.47;;;0.40;;
16025;SDS011;8117;52.488;13.460;2023-07-29T16:08:41;2.78;;;0.65;;
16025;SDS011;8117;52.488;13.460;2023-07-29T16:11:12;0.60;;;0.60;;
16025;SDS011;8117;52.488;13.460;2023-07-29T16:13:39;3.22;;;0.82;;
16025;SDS011;8117;52.488;13.460;2023-07-29T16:16:11;0.30;;;0.30;;
16025;SDS011;8117;52.488;13.460;2023-07-29T16:18:40;0.93;;;0.73;;
16025;SDS011;8117;52.488;13.460;2023-07-29T16:21:13;0.32;;;0.30;;
16025;SDS011;8117;52.488;13.460;2023-07-29T16:23:42;0.45;;;0.40;;
16025;SDS011;8117;52.488;13.460;2023-07-29T16:26:14;0.82;;;0.57;;
16025;SDS011;8117;52.488;13.460;2023-07-29T16:28:42;1.17;;;0.90;;
16025;SDS011;8117;52.488;13.460;2023-07-29T16:31:12;1.58;;;0.90;;
16025;SDS011;8117;52.488;13.460;2023-07-29T16:33:43;2.00;;;1.00;;
16025;SDS011;8117;52.488;13.460;2023-07-29T16:36:16;1.25;;;0.82;;
16025;SDS011;8117;52.488;13.460;2023-07-29T16:38:43;1.50;;;1.40;;
16025;SDS011;8117;52.488;13.460;2023-07-29T16:41:13;1.65;;;1.10;;
16025;SDS011;8117;52.488;13.460;2023-07-29T16:43:46;2.00;;;1.30;;
16025;SDS011;8117;52.488;13.460;2023-07-29T16:46:17;1.05;;;0.77;;
16025;SDS011;8117;52.488;13.460;2023-07-29T16:48:46;1.45;;;1.00;;
16025;SDS011;8117;52.488;13.460;2023-07-29T16:51:13;2.28;;;1.33;;
16025;SDS011;8117;52.488;13.460;2023-07-29T16:53:40;0.63;;;0.63;;
16025;SDS011;8117;52.488;13.460;2023-07-29T16:56:07;1.02;;;0.90;;
16025;SDS011;8117;52.488;13.460;2023-07-29T16:58:34;2.63;;;1.42;;
16025;SDS011;8117;52.488;13.460;2023-07-29T17:01:01;3.35;;;0.95;;
16025;SDS011;8117;52.488;13.460;2023-07-29T17:03:29;1.15;;;0.88;;
16025;SDS011;8117;52.488;13.460;2023-07-29T17:06:04;1.42;;;0.88;;
16025;SDS011;8117;52.488;13.460;2023-07-29T17:08:33;1.55;;;1.08;;
16025;SDS011;8117;52.488;13.460;2023-07-29T17:11:00;0.98;;;0.65;;
16025;SDS011;8117;52.488;13.460;2023-07-29T17:13:26;1.52;;;1.02;;
16025;SDS011;8117;52.488;13.460;2023-07-29T17:15:53;0.93;;;0.70;;
16025;SDS011;8117;52.488;13.460;2023-07-29T17:18:21;0.95;;;0.63;;
16025;SDS011;8117;52.488;13.460;2023-07-29T17:20:49;1.00;;;0.90;;
16025;SDS011;8117;52.488;13.460;2023-07-29T17:23:16;1.23;;;0.80;;
16025;SDS011;8117;52.488;13.460;2023-07-29T17:25:42;2.88;;;1.23;;
16025;SDS011;8117;52.488;13.460;2023-07-29T17:28:09;1.52;;;1.27;;
16025;SDS011;8117;52.488;13.460;2023-07-29T17:30:39;1.98;;;1.02;;
16025;SDS011;8117;52.488;13.460;2023-07-29T17:33:08;1.50;;;1.02;;
16025;SDS011;8117;52.488;13.460;2023-07-29T17:35:41;2.13;;;1.08;;
16025;SDS011;8117;52.488;13.460;2023-07-29T17:38:15;0.80;;;0.80;;
16025;SDS011;8117;52.488;13.460;2023-07-29T17:40:41;0.73;;;0.70;;
16025;SDS011;8117;52.488;13.460;2023-07-29T17:43:10;1.33;;;0.82;;
16025;SDS011;8117;52.488;13.460;2023-07-29T17:45:36;1.83;;;1.10;;
16025;SDS011;8117;52.488;13.460;2023-07-29T17:48:05;1.27;;;1.10;;
16025;SDS011;8117;52.488;13.460;2023-07-29T17:50:32;1.45;;;1.17;;
16025;SDS011;8117;52.488;13.460;2023-07-29T17:53:02;1.35;;;1.23;;
16025;SDS011;8117;52.488;13.460;2023-07-29T17:55:35;1.92;;;1.30;;
16025;SDS011;8117;52.488;13.460;2023-07-29T17:58:06;1.27;;;0.93;;
16025;SDS011;8117;52.488;13.460;2023-07-29T18:00:33;2.45;;;0.90;;
16025;SDS011;8117;52.488;13.460;2023-07-29T18:03:00;1.55;;;1.20;;
16025;SDS011;8117;52.488;13.460;2023-07-29T18:05:26;2.17;;;1.40;;
16025;SDS011;8117;52.488;13.460;2023-07-29T18:07:53;1.55;;;1.00;;
16025;SDS011;8117;52.488;13.460;2023-07-29T18:10:20;2.60;;;1.38;;
16025;SDS011;8117;52.488;13.460;2023-07-29T18:12:50;1.35;;;1.00;;
16025;SDS011;8117;52.488;13.460;2023-07-29T18:15:17;1.00;;;0.82;;
16025;SDS011;8117;52.488;13.460;2023-07-29T18:17:47;0.70;;;0.70;;
16025;SDS011;8117;52.488;13.460;2023-07-29T18:20:13;1.25;;;1.10;;
16025;SDS011;8117;52.488;13.460;2023-07-29T18:27:03;2.95;;;1.27;;
16025;SDS011;8117;52.488;13.460;2023-07-29T18:29:22;1.40;;;1.15;;
16025;SDS011;8117;52.488;13.460;2023-07-29T18:35:29;1.42;;;1.00;;
16025;SDS011;8117;52.488;13.460;2023-07-29T18:49:04;4.10;;;1.63;;
16025;SDS011;8117;52.488;13.460;2023-07-29T18:51:33;2.33;;;0.82;;
16025;SDS011;8117;52.488;13.460;2023-07-29T18:54:02;3.22;;;1.15;;
16025;SDS011;8117;52.488;13.460;2023-07-29T18:56:50;1.50;;;0.88;;
16025;SDS011;8117;52.488;13.460;2023-07-29T18:59:18;1.42;;;1.33;;
16025;SDS011;8117;52.488;13.460;2023-07-29T19:01:48;1.50;;;1.20;;
16025;SDS011;8117;52.488;13.460;2023-07-29T19:04:16;2.03;;;0.85;;
16025;SDS011;8117;52.488;13.460;2023-07-29T19:06:43;1.63;;;1.42;;
16025;SDS011;8117;52.488;13.460;2023-07-29T19:09:10;2.03;;;1.30;;
16025;SDS011;8117;52.488;13.460;2023-07-29T19:15:19;6.07;;;2.33;;
16025;SDS011;8117;52.488;13.460;2023-07-29T19:18:32;1.15;;;1.05;;
16025;SDS011;8117;52.488;13.460;2023-07-29T19:21:25;2.38;;;1.35;;
16025;SDS011;8117;52.488;13.460;2023-07-29T19:24:04;2.40;;;1.25;;
16025;SDS011;8117;52.488;13.460;2023-07-29T19:28:45;2.22;;;1.25;;
16025;SDS011;8117;52.488;13.460;2023-07-29T19:29:42;2.22;;;1.55;;
16025;SDS011;8117;52.488;13.460;2023-07-29T19:32:11;1.85;;;1.45;;
16025;SDS011;8117;52.488;13.460;2023-07-29T19:35:01;2.00;;;1.00;;
16025;SDS011;8117;52.488;13.460;2023-07-29T19:37:38;1.48;;;1.08;;
16025;SDS011;8117;52.488;13.460;2023-07-29T19:41:27;2.60;;;1.33;;
16025;SDS011;8117;52.488;13.460;2023-07-29T19:46:33;1.63;;;1.42;;
16025;SDS011;8117;52.488;13.460;2023-07-29T19:52:14;1.90;;;1.10;;
16025;SDS011;8117;52.488;13.460;2023-07-29T20:04:18;1.77;;;1.38;;
16025;SDS011;8117;52.488;13.460;2023-07-29T20:06:55;2.95;;;1.20;;
16025;SDS011;8117;52.488;13.460;2023-07-29T20:12:44;2.17;;;1.25;;
16025;SDS011;8117;52.488;13.460;2023-07-29T20:39:01;2.15;;;1.30;;
16025;SDS011;8117;52.488;13.460;2023-07-29T20:41:31;1.77;;;1.42;;
16025;SDS011;8117;52.488;13.460;2023-07-29T20:43:58;1.70;;;1.42;;
16025;SDS011;8117;52.488;13.460;2023-07-29T20:46:35;3.63;;;1.75;;
16025;SDS011;8117;52.488;13.460;2023-07-29T20:49:05;2.75;;;1.52;;
16025;SDS011;8117;52.488;13.460;2023-07-29T20:51:32;2.75;;;1.75;;
16025;SDS011;8117;52.488;13.460;2023-07-29T20:54:02;2.88;;;1.33;;
16025;SDS011;8117;52.488;13.460;2023-07-29T20:56:31;2.13;;;1.85;;
16025;SDS011;8117;52.488;13.460;2023-07-29T20:58:58;4.28;;;1.80;;
16025;SDS011;8117;52.488;13.460;2023-07-29T21:01:26;2.75;;;1.70;;
16025;SDS011;8117;52.488;13.460;2023-07-29T21:03:53;2.60;;;1.60;;
16025;SDS011;8117;52.488;13.460;2023-07-29T21:06:25;2.05;;;1.50;;
16025;SDS011;8117;52.488;13.460;2023-07-29T21:08:54;2.25;;;1.65;;
16025;SDS011;8117;52.488;13.460;2023-07-29T21:11:30;2.45;;;1.52;;
16025;SDS011;8117;52.488;13.460;2023-07-29T21:14:02;1.25;;;1.00;;
16025;SDS011;8117;52.488;13.460;2023-07-29T21:16:29;1.50;;;1.17;;
16025;SDS011;8117;52.488;13.460;2023-07-29T21:18:59;1.42;;;1.23;;
16025;SDS011;8117;52.488;13.460;2023-07-29T21:21:25;1.33;;;1.20;;
16025;SDS011;8117;52.488;13.460;2023-07-29T21:23:58;3.20;;;1.75;;
16025;SDS011;8117;52.488;13.460;2023-07-29T21:26:27;3.10;;;1.38;;
16025;SDS011;8117;52.488;13.460;2023-07-29T21:28:57;2.33;;;1.52;;
16025;SDS011;8117;52.488;13.460;2023-07-29T21:31:24;1.50;;;1.00;;
16025;SDS011;8117;52.488;13.460;2023-07-29T21:33:58;2.10;;;1.38;;
16025;SDS011;8117;52.488;13.460;2023-07-29T21:36:31;1.95;;;1.20;;
16025;SDS011;8117;52.488;13.460;2023-07-29T21:38:59;2.53;;;1.65;;
16025;SDS011;8117;52.488;13.460;2023-07-29T21:44:22;3.20;;;1.85;;
16025;SDS011;8117;52.488;13.460;2023-07-29T21:46:52;3.20;;;1.70;;
16025;SDS011;8117;52.488;13.460;2023-07-29T21:49:32;2.27;;;1.73;;
16025;SDS011;8117;52.488;13.460;2023-07-29T21:52:03;2.90;;;1.52;;
16025;SDS011;8117;52.488;13.460;2023-07-29T21:54:40;1.35;;;1.10;;
16025;SDS011;8117;52.488;13.460;2023-07-29T21:57:08;2.00;;;1.55;;
16025;SDS011;8117;52.488;13.460;2023-07-29T21:59:36;2.30;;;2.10;;
16025;SDS011;8117;52.488;13.460;2023-07-29T22:02:09;1.40;;;1.30;;
16025;SDS011;8117;52.488;13.460;2023-07-29T22:04:41;2.13;;;1.52;;
16025;SDS011;8117;52.488;13.460;2023-07-29T22:07:11;2.78;;;1.90;;
16025;SDS011;8117;52.488;13.460;2023-07-29T22:09:43;3.30;;;2.27;;
16025;SDS011;8117;52.488;13.460;2023-07-29T22:12:20;2.70;;;1.83;;
16025;SDS011;8117;52.488;13.460;2023-07-29T22:14:49;3.30;;;1.60;;
16025;SDS011;8117;52.488;13.460;2023-07-29T22:17:16;1.35;;;1.25;;
16025;SDS011;8117;52.488;13.460;2023-07-29T22:19:54;2.40;;;1.70;;
16025;SDS011;8117;52.488;13.460;2023-07-29T22:22:27;2.85;;;1.80;;
16025;SDS011;8117;52.488;13.460;2023-07-29T22:24:56;2.53;;;1.63;;
16025;SDS011;8117;52.488;13.460;2023-07-29T22:27:28;2.00;;;1.53;;
16025;SDS011;8117;52.488;13.460;2023-07-29T22:29:57;2.13;;;1.53;;
16025;SDS011;8117;52.488;13.460;2023-07-29T22:32:39;2.75;;;1.13;;
16025;SDS011;8117;52.488;13.460;2023-07-29T22:35:09;1.73;;;1.33;;
16025;SDS011;8117;52.488;13.460;2023-07-29T22:37:38;2.22;;;1.67;;
16025;SDS011;8117;52.488;13.460;2023-07-29T22:40:13;1.98;;;1.48;;
16025;SDS011;8117;52.488;13.460;2023-07-29T22:45:36;2.70;;;1.42;;
16025;SDS011;8117;52.488;13.460;2023-07-29T22:48:04;1.92;;;1.30;;
16025;SDS011;8117;52.488;13.460;2023-07-29T22:50:31;3.93;;;2.40;;
16025;SDS011;8117;52.488;13.460;2023-07-29T22:52:58;2.47;;;1.50;;
16025;SDS011;8117;52.488;13.460;2023-07-29T22:55:31;2.60;;;1.65;;
16025;SDS011;8117;52.488;13.460;2023-07-29T22:58:00;1.80;;;1.65;;
16025;SDS011;8117;52.488;13.460;2023-07-29T23:00:32;2.30;;;1.52;;
16025;SDS011;8117;52.488;13.460;2023-07-29T23:03:01;2.53;;;1.57;;
16025;SDS011;8117;52.488;13.460;2023-07-29T23:06:13;4.22;;;2.05;;
16025;SDS011;8117;52.488;13.460;2023-07-29T23:08:54;2.50;;;1.40;;
16025;SDS011;8117;52.488;13.460;2023-07-29T23:11:29;3.42;;;2.15;;
16025;SDS011;8117;52.488;13.460;2023-07-29T23:13:55;3.72;;;2.10;;
16025;SDS011;8117;52.488;13.460;2023-07-29T23:16:26;2.58;;;2.08;;
16025;SDS011;8117;52.488;13.460;2023-07-29T23:18:53;3.63;;;1.75;;
16025;SDS011;8117;52.488;13.460;2023-07-29T23:21:22;2.07;;;1.87;;
16025;SDS011;8117;52.488;13.460;2023-07-29T23:23:49;2.92;;;1.90;;
16025;SDS011;8117;52.488;13.460;2023-07-29T23:26:20;2.92;;;1.75;;
16025;SDS011;8117;52.488;13.460;2023-07-29T23:28:47;3.78;;;2.50;;
16025;SDS011;8117;52.488;13.460;2023-07-29T23:31:14;2.00;;;1.80;;
16025;SDS011;8117;52.488;13.460;2023-07-29T23:33:46;3.00;;;2.00;;
16025;SDS011;8117;52.488;13.460;2023-07-29T23:36:13;2.80;;;2.43;;
16025;SDS011;8117;52.488;13.460;2023-07-29T23:38:39;2.38;;;1.63;;
16025;SDS011;8117;52.488;13.460;2023-07-29T23:41:08;2.45;;;1.92;;
16025;SDS011;8117;52.488;13.460;2023-07-29T23:43:53;2.72;;;1.85;;
16025;SDS011;8117;52.488;13.460;2023-07-29T23:46:37;2.10;;;1.55;;
16025;SDS011;8117;52.488;13.460;2023-07-29T23:49:16;2.78;;;2.00;;
16025;SDS011;8117;52.488;13.460;2023-07-29T23:51:58;2.42;;;2.08;;
16025;SDS011;8117;52.488;13.460;2023-07-29T23:54:38;3.10;;;2.13;;
16025;SDS011;8117;52.488;13.460;2023-07-29T23:57:10;1.52;;;1.42;;
16025;SDS011;8117;52.488;13.460;2023-07-29T23:59:40;2.77;;;2.07;;
